createdAt,value
2023-05-21T00:06:41.194Z,101039.08
2023-05-21T00:09:14.550Z,101040.83
2023-05-21T00:11:44.439Z,101039.44
2023-05-21T00:14:36.026Z,101035.22
2023-05-21T00:17:03.888Z,101034.70
2023-05-21T00:19:33.452Z,101031.00
2023-05-21T00:22:28.099Z,101030.65
2023-05-21T00:24:59.985Z,101031.16
2023-05-21T00:27:35.574Z,101028.88
2023-05-21T00:30:06.521Z,101024.64
2023-05-21T00:32:33.754Z,101027.11
2023-05-21T00:35:00.936Z,101020.42
2023-05-21T00:37:32.406Z,101018.84
2023-05-21T00:40:05.149Z,101016.02
2023-05-21T00:42:32.147Z,101016.39
2023-05-21T00:44:59.456Z,101014.09
2023-05-21T00:47:29.029Z,101011.99
2023-05-21T00:49:55.985Z,101009.17
2023-05-21T00:52:26.353Z,101006.52
2023-05-21T00:54:53.725Z,101009.86
2023-05-21T00:57:22.443Z,101002.47
2023-05-21T00:59:51.799Z,101003.86
2023-05-21T01:02:18.793Z,101002.11
2023-05-21T01:04:45.845Z,100998.73
2023-05-21T01:07:14.033Z,101000.30
2023-05-21T01:09:42.504Z,100998.89
2023-05-21T01:12:10.886Z,100998.01
2023-05-21T01:14:41.624Z,101002.38
2023-05-21T01:17:09.976Z,101004.14
2023-05-21T01:19:37.167Z,101004.81
2023-05-21T01:22:06.573Z,100996.19
2023-05-21T01:24:33.888Z,100995.48
2023-05-21T01:27:06.029Z,100998.45
2023-05-21T01:29:33.468Z,100996.52
2023-05-21T01:32:38.264Z,100998.43
2023-05-21T01:35:09.822Z,100998.08
2023-05-21T01:37:41.118Z,100998.79
2023-05-21T01:40:17.782Z,100997.73
2023-05-21T01:42:46.014Z,101000.02
2023-05-21T01:45:15.324Z,100994.56
2023-05-21T01:47:47.166Z,100999.49
2023-05-21T01:50:15.631Z,100994.59
2023-05-21T01:53:08.683Z,100991.95
2023-05-21T01:55:39.007Z,100998.29
2023-05-21T01:58:05.899Z,100996.34
2023-05-21T02:00:34.151Z,100993.89
2023-05-21T02:03:01.427Z,100995.64
2023-05-21T02:05:28.431Z,100988.44
2023-05-21T02:07:55.357Z,100991.77
2023-05-21T02:10:22.647Z,100986.86
2023-05-21T02:12:49.575Z,100987.22
2023-05-21T02:15:19.388Z,100985.98
2023-05-21T02:17:46.455Z,100986.84
2023-05-21T02:20:14.039Z,100986.98
2023-05-21T02:22:43.286Z,100982.08
2023-05-21T02:25:12.234Z,100980.98
2023-05-21T02:27:40.290Z,100980.25
2023-05-21T02:30:09.355Z,100981.48
2023-05-21T02:32:37.012Z,100981.12
2023-05-21T02:35:04.695Z,100977.08
2023-05-21T02:37:34.677Z,100975.15
2023-05-21T02:40:03.718Z,100973.93
2023-05-21T02:42:30.747Z,100974.45
2023-05-21T02:44:57.827Z,100972.15
2023-05-21T02:47:25.061Z,100966.70
2023-05-21T02:49:52.621Z,100965.83
2023-05-21T02:52:23.472Z,100961.09
2023-05-21T02:54:51.481Z,100963.73
2023-05-21T02:57:18.361Z,100965.48
2023-05-21T02:59:45.537Z,100963.35
2023-05-21T03:02:12.615Z,100962.79
2023-05-21T03:04:46.104Z,100959.09
2023-05-21T03:07:14.418Z,100958.38
2023-05-21T03:09:41.834Z,100955.20
2023-05-21T03:12:09.837Z,100954.70
2023-05-21T03:14:37.730Z,100957.87
2023-05-21T03:17:08.070Z,100956.15
2023-05-21T03:19:35.843Z,100959.15
2023-05-21T03:22:04.004Z,100958.63
2023-05-21T03:24:32.569Z,100961.78
2023-05-21T03:27:00.987Z,100959.84
2023-05-21T03:29:28.295Z,100954.36
2023-05-21T03:31:55.588Z,100955.77
2023-05-21T03:34:23.016Z,100959.45
2023-05-21T03:36:50.548Z,100958.76
2023-05-21T03:39:17.554Z,100960.17
2023-05-21T03:41:44.584Z,100961.03
2023-05-21T03:44:11.679Z,100956.66
2023-05-21T03:46:38.675Z,100962.48
2023-05-21T03:49:05.824Z,100959.34
2023-05-21T03:51:32.922Z,100959.37
2023-05-21T03:54:00.837Z,100958.35
2023-05-21T03:56:27.859Z,100957.85
2023-05-21T03:58:54.895Z,100957.36
2023-05-21T04:01:21.866Z,100958.63
2023-05-21T04:03:48.938Z,100963.09
2023-05-21T04:06:16.460Z,100966.27
2023-05-21T04:08:44.023Z,100965.07
2023-05-21T04:11:11.151Z,100967.19
2023-05-21T04:13:38.403Z,100967.19
2023-05-21T04:16:08.305Z,100970.19
2023-05-21T04:18:35.244Z,100965.44
2023-05-21T04:21:02.258Z,100966.66
2023-05-21T04:23:29.214Z,100968.55
2023-05-21T04:25:56.097Z,100965.73
2023-05-21T04:28:23.709Z,100969.04
2023-05-21T04:30:50.770Z,100970.54
2023-05-21T04:33:19.657Z,100973.20
2023-05-21T04:35:49.364Z,100970.75
2023-05-21T04:38:19.199Z,100972.38
2023-05-21T04:40:50.416Z,100966.55
2023-05-21T04:43:18.118Z,100967.45
2023-05-21T04:45:44.980Z,100965.08
2023-05-21T04:48:12.178Z,100967.31
2023-05-21T04:50:40.937Z,100969.77
2023-05-21T04:53:08.233Z,100964.80
2023-05-21T04:55:39.341Z,100963.20
2023-05-21T04:58:12.224Z,100967.95
2023-05-21T05:00:41.584Z,100962.38
2023-05-21T05:03:08.546Z,100960.68
2023-05-21T05:05:35.815Z,100961.87
2023-05-21T05:08:03.614Z,100967.95
2023-05-21T05:10:30.487Z,100968.39
2023-05-21T05:12:57.745Z,100968.44
2023-05-21T05:15:25.762Z,100967.98
2023-05-21T05:17:54.087Z,100965.52
2023-05-21T05:20:21.010Z,100967.95
2023-05-21T05:22:47.981Z,100968.69
2023-05-21T05:25:15.050Z,100963.93
2023-05-21T05:27:41.918Z,100958.58
2023-05-21T05:30:09.312Z,100961.55
2023-05-21T05:32:36.251Z,100956.92
2023-05-21T05:35:03.567Z,100957.63
2023-05-21T05:37:30.550Z,100958.84
2023-05-21T05:39:57.434Z,100960.63
2023-05-21T05:42:24.387Z,100961.91
2023-05-21T05:44:51.341Z,100967.75
2023-05-21T05:47:18.211Z,100963.56
2023-05-21T05:49:45.229Z,100960.55
2023-05-21T05:52:12.331Z,100960.89
2023-05-21T05:54:39.265Z,100960.38
2023-05-21T05:57:06.173Z,100961.25
2023-05-21T05:59:33.418Z,100964.15
2023-05-21T06:02:00.944Z,100963.04
2023-05-21T06:04:29.436Z,100962.23
2023-05-21T06:06:59.986Z,100963.47
2023-05-21T06:09:26.943Z,100960.70
2023-05-21T06:11:54.021Z,100958.59
2023-05-21T06:14:21.004Z,100955.44
2023-05-21T06:16:47.883Z,100954.95
2023-05-21T06:19:15.102Z,100956.66
2023-05-21T06:21:42.140Z,100953.98
2023-05-21T06:24:09.077Z,100954.80
2023-05-21T06:26:36.122Z,100952.67
2023-05-21T06:29:03.655Z,100956.41
2023-05-21T06:31:32.448Z,100955.23
2023-05-21T06:34:00.309Z,100955.70
2023-05-21T06:36:29.389Z,100956.31
2023-05-21T06:38:56.649Z,100956.95
2023-05-21T06:41:23.879Z,100959.02
2023-05-21T06:43:50.951Z,100958.61
2023-05-21T06:46:18.002Z,100953.23
2023-05-21T06:48:46.095Z,100958.30
2023-05-21T06:51:13.184Z,100952.29
2023-05-21T06:53:40.216Z,100952.29
2023-05-21T06:56:07.322Z,100955.88
2023-05-21T06:58:34.921Z,100957.64
2023-05-21T07:01:01.996Z,100952.04
2023-05-21T07:03:29.179Z,100951.83
2023-05-21T07:05:57.537Z,100953.89
2023-05-21T07:08:24.491Z,100950.30
2023-05-21T07:10:51.462Z,100950.24
2023-05-21T07:13:18.548Z,100949.51
2023-05-21T07:15:45.499Z,100955.66
2023-05-21T07:18:12.812Z,100953.28
2023-05-21T07:20:40.440Z,100951.95
2023-05-21T07:23:08.784Z,100954.05
2023-05-21T07:25:36.259Z,100954.78
2023-05-21T07:28:05.916Z,100956.09
2023-05-21T07:30:33.505Z,100953.95
2023-05-21T07:33:00.506Z,100947.61
2023-05-21T07:35:28.545Z,100947.80
2023-05-21T07:37:55.632Z,100950.31
2023-05-21T07:40:22.657Z,100949.34
2023-05-21T07:42:50.080Z,100947.14
2023-05-21T07:45:17.181Z,100947.69
2023-05-21T07:47:45.924Z,100945.54
2023-05-21T07:50:13.820Z,100943.63
2023-05-21T07:52:40.851Z,100941.36
2023-05-21T07:55:08.848Z,100942.84
2023-05-21T07:57:36.244Z,100945.02
2023-05-21T08:00:06.391Z,100946.64
2023-05-21T08:02:33.750Z,100949.13
2023-05-21T08:05:01.300Z,100951.27
2023-05-21T08:07:28.822Z,100952.69
2023-05-21T08:09:57.644Z,100953.24
2023-05-21T08:12:25.370Z,100956.46
2023-05-21T08:14:52.370Z,100954.81
2023-05-21T08:17:19.221Z,100959.27
2023-05-21T08:19:46.108Z,100956.71
2023-05-21T08:22:13.353Z,100954.96
2023-05-21T08:24:40.875Z,100956.39
2023-05-21T08:27:07.806Z,100955.77
2023-05-21T08:29:34.877Z,100956.06
2023-05-21T08:32:01.900Z,100957.41
2023-05-21T08:34:28.843Z,100955.79
2023-05-21T08:36:56.646Z,100956.91
2023-05-21T08:39:23.534Z,100956.31
2023-05-21T08:41:54.937Z,100956.63
2023-05-21T08:44:25.900Z,100956.11
2023-05-21T08:46:54.630Z,100955.05
2023-05-21T08:49:27.303Z,100956.66
2023-05-21T08:51:55.773Z,100952.88
2023-05-21T08:54:23.645Z,100956.35
2023-05-21T08:56:52.468Z,100959.44
2023-05-21T08:59:21.193Z,100959.15
2023-05-21T09:01:49.553Z,100959.13
2023-05-21T09:04:21.341Z,100960.02
2023-05-21T09:06:50.008Z,100959.20
2023-05-21T09:09:27.663Z,100955.66
2023-05-21T09:11:55.025Z,100957.16
2023-05-21T09:14:23.326Z,100956.27
2023-05-21T09:16:50.388Z,100956.54
2023-05-21T09:19:20.637Z,100953.60
2023-05-21T09:21:50.584Z,100959.11
2023-05-21T09:24:22.236Z,100953.76
2023-05-21T09:26:49.257Z,100950.52
2023-05-21T09:29:16.472Z,100954.44
2023-05-21T09:31:45.134Z,100955.35
2023-05-21T09:34:13.639Z,100955.47
2023-05-21T09:36:40.813Z,100951.16
2023-05-21T09:39:29.620Z,100949.87
2023-05-21T09:41:58.079Z,100950.20
2023-05-21T09:44:25.151Z,100949.19
2023-05-21T09:47:00.583Z,100945.19
2023-05-21T09:49:27.649Z,100950.85
2023-05-21T09:51:58.503Z,100951.95
2023-05-21T09:54:30.831Z,100952.48
2023-05-21T09:57:01.929Z,100953.64
2023-05-21T09:59:37.964Z,100949.98
2023-05-21T10:02:45.640Z,100947.27
2023-05-21T10:05:35.799Z,100947.80
2023-05-21T11:01:33.250Z,100905.98
2023-05-21T11:04:01.545Z,100896.69
2023-05-21T11:06:38.163Z,100900.98
2023-05-21T11:09:24.779Z,100898.67
2023-05-21T11:12:04.549Z,100895.23
2023-05-21T11:14:36.363Z,100893.27
2023-05-21T11:20:22.534Z,100888.30
2023-05-21T11:22:52.965Z,100888.73
2023-05-21T11:25:20.402Z,100890.06
2023-05-21T11:28:45.800Z,100888.19
2023-05-21T11:34:44.290Z,100881.23
2023-05-21T11:37:43.480Z,100875.98
2023-05-21T11:48:19.291Z,100870.20
2023-05-21T11:50:58.615Z,100874.67
2023-05-21T11:53:31.873Z,100869.61
2023-05-21T11:56:02.176Z,100871.84
2023-05-21T12:40:16.318Z,100854.33
2023-05-21T12:42:44.569Z,100851.97
2023-05-21T12:45:13.592Z,100849.14
2023-05-21T12:47:41.883Z,100854.66
2023-05-21T12:53:12.625Z,100845.63
2023-05-21T12:55:46.397Z,100847.71
2023-05-21T12:58:14.392Z,100844.45
2023-05-21T13:03:51.960Z,100849.80
2023-05-21T13:10:45.904Z,100846.97
2023-05-21T13:13:16.314Z,100844.77
2023-05-21T13:15:43.435Z,100844.09
2023-05-21T13:22:09.851Z,100844.95
2023-05-21T13:24:39.402Z,100840.42
2023-05-21T13:27:36.745Z,100846.23
2023-05-21T13:30:08.979Z,100842.42
2023-05-21T13:32:36.439Z,100840.85
2023-05-21T13:35:04.263Z,100840.58
2023-05-21T13:37:38.610Z,100838.02
2023-05-21T13:40:07.464Z,100834.15
2023-05-21T13:42:37.204Z,100831.64
2023-05-21T13:45:05.952Z,100825.21
2023-05-21T13:47:33.262Z,100821.96
2023-05-21T13:50:00.478Z,100815.27
2023-05-21T13:52:27.428Z,100813.95
2023-05-21T13:54:54.435Z,100814.06
2023-05-21T13:57:22.182Z,100817.95
2023-05-21T13:59:50.300Z,100815.57
2023-05-21T14:02:17.330Z,100812.11
2023-05-21T14:04:44.409Z,100812.41
2023-05-21T14:07:11.586Z,100806.31
2023-05-21T14:09:41.742Z,100795.99
2023-05-21T14:12:08.864Z,100795.63
2023-05-21T14:14:36.084Z,100799.95
2023-05-21T14:17:03.214Z,100801.42
2023-05-21T14:19:31.287Z,100798.31
2023-05-21T14:21:59.415Z,100796.62
2023-05-21T14:24:26.913Z,100799.52
2023-05-21T14:26:53.906Z,100797.73
2023-05-21T14:29:20.944Z,100794.11
2023-05-21T14:31:48.372Z,100794.30
2023-05-21T14:34:15.395Z,100796.47
2023-05-21T14:36:42.390Z,100794.50
2023-05-21T14:39:09.276Z,100786.02
2023-05-21T14:41:39.176Z,100790.84
2023-05-21T14:44:06.362Z,100789.07
2023-05-21T14:46:33.409Z,100790.77
2023-05-21T14:49:00.886Z,100789.09
2023-05-21T14:51:28.002Z,100791.50
2023-05-21T14:53:57.067Z,100789.26
2023-05-21T14:56:26.806Z,100784.18
2023-05-21T14:58:54.321Z,100782.40
2023-05-21T15:01:24.896Z,100782.98
2023-05-21T15:03:52.561Z,100785.21
2023-05-21T15:06:20.068Z,100785.20
2023-05-21T15:08:47.924Z,100781.35
2023-05-21T15:11:15.780Z,100781.41
2023-05-21T15:13:43.089Z,100782.65
2023-05-21T15:16:16.562Z,100780.56
2023-05-21T15:18:45.563Z,100777.70
2023-05-21T15:21:13.609Z,100775.65
2023-05-21T15:23:42.583Z,100770.60
2023-05-21T15:26:17.513Z,100770.95
2023-05-21T15:28:45.140Z,100763.63
2023-05-21T15:31:23.928Z,100763.25
2023-05-21T15:33:51.169Z,100761.02
2023-05-21T15:36:18.252Z,100760.16
2023-05-21T15:38:45.350Z,100758.37
2023-05-21T15:41:12.346Z,100756.02
2023-05-21T15:43:39.305Z,100758.16
2023-05-21T15:46:06.428Z,100755.23
2023-05-21T15:48:33.722Z,100754.96
2023-05-21T15:51:56.888Z,100756.84
2023-05-21T15:54:24.417Z,100750.62
2023-05-21T15:56:51.615Z,100754.63
2023-05-21T15:59:19.079Z,100755.52
2023-05-21T16:01:47.236Z,100753.98
2023-05-21T16:04:16.494Z,100753.02
2023-05-21T16:06:43.586Z,100754.43
2023-05-21T16:09:10.845Z,100754.08
2023-05-21T16:11:38.541Z,100750.02
2023-05-21T16:14:05.516Z,100751.14
2023-05-21T16:16:33.763Z,100749.55
2023-05-21T16:19:01.335Z,100746.73
2023-05-21T16:21:28.361Z,100740.23
2023-05-21T16:23:55.789Z,100740.27
2023-05-21T16:26:22.709Z,100737.67
2023-05-21T16:28:49.787Z,100737.76
2023-05-21T16:31:16.876Z,100739.95
2023-05-21T16:33:43.852Z,100740.36
2023-05-21T16:36:10.853Z,100738.29
2023-05-21T16:38:38.144Z,100733.76
2023-05-21T16:41:05.218Z,100737.56
2023-05-21T16:43:32.123Z,100734.74
2023-05-21T16:45:59.110Z,100731.56
2023-05-21T16:48:26.124Z,100734.83
2023-05-21T16:50:52.987Z,100739.70
2023-05-21T16:53:20.051Z,100738.88
2023-05-21T16:55:47.170Z,100741.63
2023-05-21T16:58:14.197Z,100740.89
2023-05-21T17:00:41.199Z,100743.60
2023-05-21T17:03:08.220Z,100741.45
2023-05-21T17:05:35.707Z,100744.10
2023-05-21T17:08:03.350Z,100742.13
2023-05-21T17:10:32.466Z,100745.00
2023-05-21T17:13:01.887Z,100747.13
2023-05-21T17:15:33.840Z,100752.30
2023-05-21T17:18:00.952Z,100752.48
2023-05-21T17:20:27.969Z,100752.80
2023-05-21T17:22:54.945Z,100756.50
2023-05-21T17:25:21.960Z,100757.57
2023-05-21T17:27:50.202Z,100761.34
2023-05-21T17:30:17.218Z,100758.97
2023-05-21T17:32:44.289Z,100755.42
2023-05-21T17:35:11.265Z,100752.05
2023-05-21T17:37:38.352Z,100753.29
2023-05-21T17:40:06.341Z,100749.38
2023-05-21T17:42:33.207Z,100749.57
2023-05-21T17:45:00.641Z,100752.63
2023-05-21T17:47:27.675Z,100747.66
2023-05-21T17:50:22.416Z,100745.23
2023-05-21T17:52:49.399Z,100746.42
2023-05-21T17:55:16.631Z,100745.25
2023-05-21T17:57:43.543Z,100741.39
2023-05-21T18:00:10.996Z,100742.21
2023-05-21T18:02:38.631Z,100740.34
2023-05-21T18:05:05.823Z,100735.79
2023-05-21T18:07:32.847Z,100738.19
2023-05-21T18:09:59.843Z,100740.06
2023-05-21T18:12:26.744Z,100740.73
2023-05-21T18:14:53.951Z,100740.42
2023-05-21T18:17:20.889Z,100739.77
2023-05-21T18:19:47.843Z,100736.11
2023-05-21T18:22:14.848Z,100737.44
2023-05-21T18:24:42.205Z,100738.60
2023-05-21T18:27:09.165Z,100739.56
2023-05-21T18:29:36.556Z,100738.95
2023-05-21T18:32:04.108Z,100742.05
2023-05-21T18:34:31.159Z,100743.21
2023-05-21T18:36:58.238Z,100747.45
2023-05-21T18:39:27.186Z,100751.83
2023-05-21T18:42:11.304Z,100756.92
2023-05-21T18:44:39.752Z,100757.63
2023-05-21T18:47:06.977Z,100759.50
2023-05-21T18:49:35.289Z,100765.50
2023-05-21T18:52:02.585Z,100769.56
2023-05-21T18:54:29.483Z,100769.40
2023-05-21T18:57:05.353Z,100774.44
2023-05-21T18:59:32.511Z,100772.77
2023-05-21T19:01:59.794Z,100777.52
2023-05-21T19:04:27.014Z,100774.84
2023-05-21T19:06:54.403Z,100777.14
2023-05-21T19:09:21.492Z,100781.69
2023-05-21T19:11:49.828Z,100784.08
2023-05-21T19:14:20.334Z,100784.34
2023-05-21T19:16:47.272Z,100789.33
2023-05-21T19:19:14.410Z,100796.38
2023-05-21T19:21:41.457Z,100797.28
2023-05-21T19:24:08.503Z,100792.86
2023-05-21T19:26:35.517Z,100793.93
2023-05-21T19:29:02.440Z,100794.13
2023-05-21T19:31:29.679Z,100796.59
2023-05-21T19:33:56.693Z,100800.14
2023-05-21T19:36:23.842Z,100806.73
2023-05-21T19:38:52.261Z,100809.25
2023-05-21T19:41:21.645Z,100809.29
2023-05-21T19:43:48.568Z,100810.02
2023-05-21T19:46:19.125Z,100809.42
2023-05-21T19:48:47.233Z,100811.71
2023-05-21T19:51:14.380Z,100810.79
2023-05-21T19:53:41.611Z,100808.64
2023-05-21T19:56:08.791Z,100808.66
2023-05-21T19:58:37.106Z,100805.85
2023-05-21T20:01:05.761Z,100806.41
2023-05-21T20:03:35.400Z,100803.58
2023-05-21T20:06:03.160Z,100806.21
2023-05-21T20:08:30.267Z,100804.86
2023-05-21T20:10:57.318Z,100802.88
2023-05-21T20:13:24.514Z,100805.52
2023-05-21T20:15:51.683Z,100805.00
2023-05-21T20:18:21.984Z,100805.50
2023-05-21T20:20:49.096Z,100803.86
2023-05-21T20:23:16.122Z,100805.96
2023-05-21T20:25:43.240Z,100809.66
2023-05-21T20:28:10.460Z,100809.47
2023-05-21T20:30:58.451Z,100807.52
2023-05-21T20:33:31.372Z,100806.96
2023-05-21T20:35:59.395Z,100806.73
2023-05-21T20:38:26.719Z,100808.49
2023-05-21T20:40:54.859Z,100811.46
2023-05-21T20:43:23.939Z,100808.92
2023-05-21T20:45:52.660Z,100807.27
2023-05-21T20:48:19.809Z,100815.94
2023-05-21T20:50:49.141Z,100817.13
2023-05-21T20:53:17.307Z,100816.86
2023-05-21T20:55:46.113Z,100815.55
2023-05-21T20:58:13.279Z,100817.92
2023-05-21T21:00:41.644Z,100820.33
2023-05-21T21:03:12.056Z,100821.48
2023-05-21T21:06:06.578Z,100813.47
2023-05-21T21:08:40.194Z,100816.88
2023-05-21T21:11:10.123Z,100811.65
2023-05-21T21:13:37.441Z,100811.30
2023-05-21T21:16:05.404Z,100811.73
2023-05-21T21:18:32.723Z,100814.06
2023-05-21T21:21:00.235Z,100814.85
2023-05-21T21:23:29.527Z,100814.38
2023-05-21T21:25:58.385Z,100816.42
2023-05-21T21:28:30.806Z,100817.08
2023-05-21T21:30:59.383Z,100818.22
2023-05-21T21:46:58.457Z,100809.63
2023-05-21T21:49:26.369Z,100808.95
2023-05-21T21:52:00.489Z,100811.48
2023-05-21T22:08:51.094Z,100814.73
2023-05-21T22:11:41.972Z,100810.42
2023-05-21T22:14:11.224Z,100817.85
2023-05-21T22:38:28.409Z,100813.25
2023-05-21T22:40:57.671Z,100809.38
2023-05-21T22:43:40.504Z,100812.46
2023-05-21T22:46:13.843Z,100802.81
2023-05-21T22:49:04.504Z,100803.92
2023-05-21T22:52:06.203Z,100801.70
2023-05-21T22:54:37.694Z,100790.31
2023-05-21T22:57:05.902Z,100790.13
2023-05-21T22:59:33.329Z,100797.23
2023-05-21T23:02:04.413Z,100792.68
2023-05-21T23:04:43.293Z,100795.73
2023-05-21T23:07:16.626Z,100793.15
2023-05-21T23:10:36.601Z,100790.23
2023-05-21T23:13:04.686Z,100788.16
2023-05-21T23:15:32.406Z,100785.38
2023-05-21T23:18:03.479Z,100784.02
2023-05-21T23:20:37.583Z,100783.15
2023-05-21T23:23:10.791Z,100786.01
2023-05-21T23:25:38.208Z,100787.09
2023-05-21T23:28:44.206Z,100785.20
2023-05-21T23:31:48.780Z,100778.05
2023-05-21T23:34:19.148Z,100780.39
2023-05-21T23:36:50.498Z,100780.96
2023-05-21T23:39:30.072Z,100782.42
2023-05-21T23:42:00.256Z,100775.23
2023-05-21T23:44:49.638Z,100775.41
2023-05-21T23:54:29.212Z,100774.30
2023-05-21T23:57:03.688Z,100770.45
